Jamie Marie — WDE7178 — position and weather

sailwx.info

Track history (hours):
 
Tides and Currents Weather Stations Pressure Air Temp Water Temp Dewpoint Dewpoint Depression Visibility Wind Speed Wind Dir Waves Ship Positions

Jamie Marie

Owner: Jamie Marie, Inc., Aberdeen, WA. More information available from US FCC via Universal Licensing System and Coast Guard Vessel Documentation Center.

Last reported at 2015-Jan-31 01:08 UTC. Time now 2015-Jan-31 16:11 UTC.
Position N 46°17' W 124°18'.

Length 30 m.

Type: Fishing. MMSI: 366425240.

Date/timePositionNaut miles runAvg speedWind from/ knotsBaromVisibWave heightAir tempDewpointWater temp
2015-Jan-31 01:08N 46°17' W 124°18'38 1.3
2015-Jan-29 20:05N 46°54' W 124°06'0 0.0
2015-Jan-29 19:29N 46°54' W 124°06'3 0.2
2015-Jan-29 03:31N 46°54' W 124°11'34 2.8
2015-Jan-28 15:08N 46°22' W 124°30'3 4.9
2015-Jan-28 14:33N 46°24' W 124°33'2 2.1
2015-Jan-28 13:33N 46°26' W 124°35'1 1.1
2015-Jan-28 12:34N 46°25' W 124°35'1 1.1
2015-Jan-28 11:33N 46°24' W 124°34'1 1.1
2015-Jan-28 10:34N 46°23' W 124°33'1 1.2
2015-Jan-28 09:34N 46°22' W 124°32'1 1.2
2015-Jan-28 08:33N 46°21' W 124°31'4 3.7
2015-Jan-28 07:33N 46°18' W 124°29'3 3.1
2015-Jan-28 06:34N 46°21' W 124°31'1 2.4
2015-Jan-28 06:14N 46°20' W 124°31'2 2.2
2015-Jan-28 05:33N 46°18' W 124°31'2 2.2
2015-Jan-28 04:33N 46°16' W 124°31'5 5.1
2015-Jan-28 03:33N 46°21' W 124°31'4 4.0
2015-Jan-28 02:33N 46°17' W 124°33'1 1.1
2015-Jan-28 01:33N 46°16' W 124°33'2 2.0
2015-Jan-28 00:34N 46°18' W 124°33'1 6.8
2015-Jan-28 00:24N 46°19' W 124°34'2 2.4
2015-Jan-27 23:34N 46°17' W 124°33'2 2.1
2015-Jan-27 22:33N 46°19' W 124°34'8 7.6
2015-Jan-27 21:33N 46°19' W 124°23'3 2.7
2015-Jan-27 20:33N 46°20' W 124°19'4 4.3
2015-Jan-27 19:34N 46°24' W 124°21'2 1.8
2015-Jan-27 18:33N 46°25' W 124°22'0 0.4
2015-Jan-27 17:33N 46°25' W 124°23'2 1.7
2015-Jan-27 16:33N 46°27' W 124°24'1 1.4
2015-Jan-27 15:34N 46°28' W 124°22'4 3.6
2015-Jan-27 14:33N 46°29' W 124°17'1 0.9
2015-Jan-27 13:33N 46°28' W 124°18'1 1.2
2015-Jan-27 12:33N 46°27' W 124°19'1 1.3
2015-Jan-27 11:34N 46°26' W 124°20'1 1.5
2015-Jan-27 10:33N 46°25' W 124°21'2 1.8
2015-Jan-27 09:33N 46°23' W 124°21'  
Track history (hours):
 
Tides and Currents Weather Stations Pressure Air Temp Water Temp Dewpoint Dewpoint Depression Visibility Wind Speed Wind Dir Waves Ship Positions

Jamie Marie

Owner: Jamie Marie, Inc., Aberdeen, WA. More information available from US FCC via Universal Licensing System and Coast Guard Vessel Documentation Center.

Last reported at 2015-Jan-31 01:08 UTC. Time now 2015-Jan-31 16:11 UTC.
Position N 46°17' W 124°18'.

Length 30 m.

Type: Fishing. MMSI: 366425240.

Date/timePositionNaut miles runAvg speedWind from/ knotsBaromVisibWave heightAir tempDewpointWater temp
2015-Jan-31 01:08N 46°17' W 124°18'38 1.3
2015-Jan-29 20:05N 46°54' W 124°06'0 0.0
2015-Jan-29 19:29N 46°54' W 124°06'3 0.2
2015-Jan-29 03:31N 46°54' W 124°11'34 2.8
2015-Jan-28 15:08N 46°22' W 124°30'3 4.9
2015-Jan-28 14:33N 46°24' W 124°33'2 2.1
2015-Jan-28 13:33N 46°26' W 124°35'1 1.1
2015-Jan-28 12:34N 46°25' W 124°35'1 1.1
2015-Jan-28 11:33N 46°24' W 124°34'1 1.1
2015-Jan-28 10:34N 46°23' W 124°33'1 1.2
2015-Jan-28 09:34N 46°22' W 124°32'1 1.2
2015-Jan-28 08:33N 46°21' W 124°31'4 3.7
2015-Jan-28 07:33N 46°18' W 124°29'3 3.1
2015-Jan-28 06:34N 46°21' W 124°31'1 2.4
2015-Jan-28 06:14N 46°20' W 124°31'2 2.2
2015-Jan-28 05:33N 46°18' W 124°31'2 2.2
2015-Jan-28 04:33N 46°16' W 124°31'5 5.1
2015-Jan-28 03:33N 46°21' W 124°31'4 4.0
2015-Jan-28 02:33N 46°17' W 124°33'1 1.1
2015-Jan-28 01:33N 46°16' W 124°33'2 2.0
2015-Jan-28 00:34N 46°18' W 124°33'1 6.8
2015-Jan-28 00:24N 46°19' W 124°34'2 2.4
2015-Jan-27 23:34N 46°17' W 124°33'2 2.1
2015-Jan-27 22:33N 46°19' W 124°34'8 7.6
2015-Jan-27 21:33N 46°19' W 124°23'3 2.7
2015-Jan-27 20:33N 46°20' W 124°19'4 4.3
2015-Jan-27 19:34N 46°24' W 124°21'2 1.8
2015-Jan-27 18:33N 46°25' W 124°22'0 0.4
2015-Jan-27 17:33N 46°25' W 124°23'2 1.7
2015-Jan-27 16:33N 46°27' W 124°24'1 1.4
2015-Jan-27 15:34N 46°28' W 124°22'4 3.6
2015-Jan-27 14:33N 46°29' W 124°17'1 0.9
2015-Jan-27 13:33N 46°28' W 124°18'1 1.2
2015-Jan-27 12:33N 46°27' W 124°19'1 1.3
2015-Jan-27 11:34N 46°26' W 124°20'1 1.5
2015-Jan-27 10:33N 46°25' W 124°21'2 1.8
2015-Jan-27 09:33N 46°23' W 124°21'  

Dump ship's entire track history